Time,TemperatureF,DewpointF,PressureIn,WindDirection,WindDirectionDegrees,WindSpeedMPH,WindSpeedGustMPH,Humidity,HourlyPrecipIn,Conditions,Clouds,dailyrainin,SoftwareType,DateUTC
2013-02-25 00:02:00,54.1,52.0,29.86,ESE,103,5.0,10.0,92,0.07,,,0.01,weatherlink.com 1.10,2013-02-25 06:02:00,
2013-02-25 00:17:00,53.8,52.0,29.87,South,174,4.0,7.0,93,0.08,,,0.02,weatherlink.com 1.10,2013-02-25 06:17:00,
2013-02-25 00:32:00,53.6,52.0,29.84,NNE,33,7.0,8.0,93,0.08,,,0.03,weatherlink.com 1.10,2013-02-25 06:32:00,
2013-02-25 00:47:00,53.3,52.0,29.86,ESE,106,3.0,8.0,94,0.07,,,0.05,weatherlink.com 1.10,2013-02-25 06:47:00,
2013-02-25 01:02:00,53.2,52.0,29.88,SE,138,4.0,7.0,94,0.06,,,0.07,weatherlink.com 1.10,2013-02-25 07:02:00,
2013-02-25 01:17:00,53.1,52.0,29.86,ENE,75,3.0,6.0,95,0.07,,,0.09,weatherlink.com 1.10,2013-02-25 07:17:00,
2013-02-25 01:32:00,52.9,52.0,29.86,East,80,1.0,4.0,95,0.10,,,0.13,weatherlink.com 1.10,2013-02-25 07:32:00,
2013-02-25 01:48:00,52.8,52.0,29.85,ESE,117,0.0,7.0,95,0.10,,,0.15,weatherlink.com 1.10,2013-02-25 07:48:00,
2013-02-25 02:03:00,52.8,52.0,29.84,SE,128,2.0,8.0,95,0.14,,,0.21,weatherlink.com 1.10,2013-02-25 08:03:00,
2013-02-25 02:18:00,52.7,51.0,29.82,East,98,3.0,4.0,95,0.12,,,0.21,weatherlink.com 1.10,2013-02-25 08:18:00,
2013-02-25 02:33:00,52.7,52.0,29.82,East,86,1.0,8.0,96,0.09,,,0.22,weatherlink.com 1.10,2013-02-25 08:33:00,
2013-02-25 02:48:00,52.7,52.0,29.81,East,91,0.0,4.0,96,0.06,,,0.22,weatherlink.com 1.10,2013-02-25 08:48:00,
2013-02-25 03:03:00,52.8,52.0,29.80,East,83,1.0,5.0,96,0.01,,,0.22,weatherlink.com 1.10,2013-02-25 09:03:00,
2013-02-25 03:18:00,52.8,52.0,29.79,East,79,2.0,6.0,96,0.01,,,0.22,weatherlink.com 1.10,2013-02-25 09:18:00,
2013-02-25 03:33:00,52.8,52.0,29.77,NE,44,4.0,7.0,96,0.00,,,0.22,weatherlink.com 1.10,2013-02-25 09:33:00,
2013-02-25 03:48:00,53.0,52.0,29.80,ESE,107,0.0,6.0,96,0.00,,,0.22,weatherlink.com 1.10,2013-02-25 09:48:00,
2013-02-25 04:03:00,53.1,52.0,29.81,NNW,334,2.0,4.0,96,0.01,,,0.23,weatherlink.com 1.10,2013-02-25 10:03:00,
2013-02-25 04:18:00,53.1,52.0,29.80,NE,41,1.0,5.0,96,0.04,,,0.26,weatherlink.com 1.10,2013-02-25 10:18:00,
2013-02-25 04:33:00,53.1,52.0,29.81,NNE,28,1.0,4.0,96,0.08,,,0.30,weatherlink.com 1.10,2013-02-25 10:33:00,
2013-02-25 04:48:00,53.2,52.0,29.84,SW,218,2.0,2.0,96,0.13,,,0.35,weatherlink.com 1.10,2013-02-25 10:48:00,
2013-02-25 05:03:00,53.3,52.0,29.84,NE,43,1.0,1.0,96,0.20,,,0.43,weatherlink.com 1.10,2013-02-25 11:03:00,
2013-02-25 05:18:00,53.3,52.0,29.83,NNW,345,0.0,2.0,96,0.24,,,0.50,weatherlink.com 1.10,2013-02-25 11:18:00,
2013-02-25 05:33:00,53.3,52.0,29.82,North,6,2.0,5.0,96,0.27,,,0.57,weatherlink.com 1.10,2013-02-25 11:33:00,
2013-02-25 05:48:00,53.4,52.0,29.82,NNE,18,3.0,3.0,96,0.31,,,0.66,weatherlink.com 1.10,2013-02-25 11:48:00,
2013-02-25 06:03:00,53.5,52.0,29.83,NNE,33,2.0,6.0,96,0.32,,,0.75,weatherlink.com 1.10,2013-02-25 12:03:00,
2013-02-25 06:18:00,53.6,53.0,29.82,NNW,330,3.0,7.0,96,0.32,,,0.82,weatherlink.com 1.10,2013-02-25 12:18:00,
2013-02-25 06:33:00,53.6,53.0,29.83,NE,53,1.0,5.0,96,0.34,,,0.91,weatherlink.com 1.10,2013-02-25 12:33:00,
2013-02-25 06:48:00,53.6,53.0,29.83,ENE,77,0.0,6.0,96,0.34,,,1.00,weatherlink.com 1.10,2013-02-25 12:48:00,
2013-02-25 07:18:00,53.9,53.0,29.85,NW,318,1.0,6.0,96,0.35,,,1.17,weatherlink.com 1.10,2013-02-25 13:18:00,
2013-02-25 07:33:00,54.0,53.0,29.86,North,11,3.0,4.0,96,0.31,,,1.23,weatherlink.com 1.10,2013-02-25 13:33:00,
2013-02-25 07:48:00,54.2,53.0,29.85,NE,51,1.0,3.0,96,0.30,,,1.30,weatherlink.com 1.10,2013-02-25 13:48:00,
2013-02-25 08:18:00,54.8,54.0,29.86,North,360,0.0,6.0,96,0.23,,,1.41,weatherlink.com 1.10,2013-02-25 14:18:00,
2013-02-25 08:33:00,55.1,54.0,29.84,North,356,2.0,6.0,96,0.19,,,1.43,weatherlink.com 1.10,2013-02-25 14:33:00,
2013-02-25 08:48:00,55.4,54.0,29.83,NE,55,5.0,5.0,96,0.15,,,1.46,weatherlink.com 1.10,2013-02-25 14:48:00,
2013-02-25 09:03:00,55.9,55.0,29.83,NE,54,2.0,8.0,96,0.11,,,1.48,weatherlink.com 1.10,2013-02-25 15:03:00,
2013-02-25 09:18:00,56.3,55.0,29.84,SE,127,0.0,9.0,96,0.09,,,1.50,weatherlink.com 1.10,2013-02-25 15:18:00,
2013-02-25 09:33:00,56.5,55.0,29.84,ESE,115,8.0,10.0,96,0.11,,,1.54,weatherlink.com 1.10,2013-02-25 15:33:00,
2013-02-25 09:48:00,56.7,56.0,29.85,ENE,66,3.0,8.0,96,0.11,,,1.57,weatherlink.com 1.10,2013-02-25 15:48:00,
2013-02-25 10:03:00,57.0,56.0,29.82,ESE,108,3.0,10.0,96,0.13,,,1.61,weatherlink.com 1.10,2013-02-25 16:03:00,
2013-02-25 10:18:00,57.4,56.0,29.80,SE,138,5.0,12.0,96,0.13,,,1.63,weatherlink.com 1.10,2013-02-25 16:18:00,
2013-02-25 10:33:00,57.7,57.0,29.78,ENE,74,6.0,15.0,96,0.09,,,1.63,weatherlink.com 1.10,2013-02-25 16:33:00,
2013-02-25 10:48:00,58.0,57.0,29.79,SSW,194,1.0,13.0,96,0.06,,,1.63,weatherlink.com 1.10,2013-02-25 16:48:00,
2013-02-25 11:03:00,58.0,57.0,29.80,ESE,113,6.0,12.0,96,0.04,,,1.65,weatherlink.com 1.10,2013-02-25 17:03:00,
2013-02-25 11:18:00,58.1,57.0,29.78,East,79,8.0,13.0,96,0.07,,,1.70,weatherlink.com 1.10,2013-02-25 17:18:00,
2013-02-25 11:33:00,58.4,57.0,29.77,SSE,162,3.0,13.0,96,0.09,,,1.72,weatherlink.com 1.10,2013-02-25 17:33:00,
2013-02-25 11:48:00,59.7,59.0,29.77,SSE,148,1.0,12.0,96,0.09,,,1.72,weatherlink.com 1.10,2013-02-25 17:48:00,
2013-02-25 12:19:00,60.4,59.0,29.76,SE,126,3.0,11.0,95,0.02,,,1.72,weatherlink.com 1.10,2013-02-25 18:19:00,
2013-02-25 12:34:00,60.7,59.0,29.76,ENE,69,5.0,9.0,94,0.00,,,1.72,weatherlink.com 1.10,2013-02-25 18:34:00,
2013-02-25 12:49:00,60.7,59.0,29.75,ESE,115,4.0,11.0,94,0.00,,,1.72,weatherlink.com 1.10,2013-02-25 18:49:00,
2013-02-25 13:04:00,60.9,59.0,29.75,ENE,57,1.0,10.0,94,0.00,,,1.72,weatherlink.com 1.10,2013-02-25 19:04:00,
2013-02-25 13:19:00,61.6,60.0,29.74,ENE,59,5.0,12.0,93,0.00,,,1.72,weatherlink.com 1.10,2013-02-25 19:19:00,
2013-02-25 13:34:00,62.2,60.0,29.72,SE,126,4.0,12.0,92,0.00,,,1.72,weatherlink.com 1.10,2013-02-25 19:34:00,
2013-02-25 13:49:00,63.1,60.0,29.73,NE,44,7.0,15.0,89,0.00,,,1.72,weatherlink.com 1.10,2013-02-25 19:49:00,
2013-02-25 14:04:00,63.3,60.0,29.73,ESE,111,4.0,12.0,89,0.00,,,1.72,weatherlink.com 1.10,2013-02-25 20:04:00,
2013-02-25 14:19:00,63.5,60.0,29.72,NNE,32,8.0,12.0,88,0.00,,,1.72,weatherlink.com 1.10,2013-02-25 20:19:00,
2013-02-25 14:34:00,63.3,59.0,29.72,East,101,5.0,14.0,87,0.00,,,1.72,weatherlink.com 1.10,2013-02-25 20:34:00,
2013-02-25 14:49:00,62.7,60.0,29.71,ESE,108,7.0,13.0,89,0.00,,,1.72,weatherlink.com 1.10,2013-02-25 20:49:00,
2013-02-25 15:19:00,62.8,59.0,29.71,SE,131,4.0,14.0,88,0.00,,,1.72,weatherlink.com 1.10,2013-02-25 21:19:00,
2013-02-25 15:34:00,62.5,59.0,29.70,East,101,7.0,13.0,89,0.00,,,1.72,weatherlink.com 1.10,2013-02-25 21:34:00,
2013-02-25 15:49:00,62.2,59.0,29.69,SE,135,4.0,7.0,89,0.00,,,1.72,weatherlink.com 1.10,2013-02-25 21:49:00,
2013-02-25 16:04:00,61.1,59.0,29.70,East,101,2.0,7.0,92,0.00,,,1.72,weatherlink.com 1.10,2013-02-25 22:04:00,
2013-02-25 16:19:00,60.7,59.0,29.69,ESE,110,4.0,5.0,93,0.00,,,1.72,weatherlink.com 1.10,2013-02-25 22:19:00,
2013-02-25 16:34:00,60.5,59.0,29.69,ESE,107,2.0,8.0,94,0.01,,,1.73,weatherlink.com 1.10,2013-02-25 22:34:00,
2013-02-25 16:49:00,59.8,58.0,29.70,NE,54,3.0,6.0,95,0.03,,,1.75,weatherlink.com 1.10,2013-02-25 22:49:00,
2013-02-25 17:04:00,59.4,58.0,29.70,NW,316,0.0,6.0,95,0.12,,,1.84,weatherlink.com 1.10,2013-02-25 23:04:00,
2013-02-25 17:19:00,59.3,58.0,29.70,ENE,60,2.0,6.0,96,0.12,,,1.84,weatherlink.com 1.10,2013-02-25 23:19:00,
2013-02-25 17:34:00,59.3,58.0,29.70,NE,54,2.0,5.0,96,0.11,,,1.84,weatherlink.com 1.10,2013-02-25 23:34:00,
2013-02-25 17:49:00,59.3,58.0,29.70,East,101,2.0,8.0,96,0.09,,,1.84,weatherlink.com 1.10,2013-02-25 23:49:00,
2013-02-25 18:04:00,59.3,58.0,29.68,NE,53,1.0,10.0,96,0.00,,,1.84,weatherlink.com 1.10,2013-02-26 00:04:00,
2013-02-25 18:19:00,59.3,58.0,29.67,ESE,110,3.0,8.0,96,0.00,,,1.84,weatherlink.com 1.10,2013-02-26 00:19:00,
2013-02-25 18:34:00,59.4,58.0,29.68,NE,51,2.0,8.0,96,0.00,,,1.84,weatherlink.com 1.10,2013-02-26 00:34:00,
2013-02-25 18:49:00,59.5,58.0,29.67,ESE,106,4.0,7.0,96,0.00,,,1.84,weatherlink.com 1.10,2013-02-26 00:49:00,
2013-02-25 19:04:00,59.6,59.0,29.66,ESE,108,4.0,12.0,96,0.01,,,1.85,weatherlink.com 1.10,2013-02-26 01:04:00,
2013-02-25 19:19:00,59.5,58.0,29.65,East,98,8.0,11.0,96,0.05,,,1.89,weatherlink.com 1.10,2013-02-26 01:19:00,
2013-02-25 19:34:00,59.6,59.0,29.64,ESE,104,7.0,13.0,96,0.07,,,1.91,weatherlink.com 1.10,2013-02-26 01:34:00,
2013-02-25 19:49:00,59.7,59.0,29.63,East,91,3.0,13.0,96,0.07,,,1.91,weatherlink.com 1.10,2013-02-26 01:49:00,
2013-02-25 20:04:00,59.8,59.0,29.64,NE,47,4.0,10.0,96,0.24,,,2.09,weatherlink.com 1.10,2013-02-26 02:04:00,
2013-02-25 20:19:00,59.8,59.0,29.63,East,100,8.0,16.0,96,0.24,,,2.13,weatherlink.com 1.10,2013-02-26 02:19:00,
2013-02-25 20:34:00,59.8,59.0,29.62,East,97,4.0,10.0,96,0.23,,,2.14,weatherlink.com 1.10,2013-02-26 02:34:00,
2013-02-25 20:49:00,59.9,59.0,29.62,East,94,8.0,13.0,96,0.23,,,2.14,weatherlink.com 1.10,2013-02-26 02:49:00,
2013-02-25 21:04:00,59.9,59.0,29.60,SSW,212,0.0,13.0,96,0.06,,,2.15,weatherlink.com 1.10,2013-02-26 03:04:00,
2013-02-25 21:19:00,59.9,59.0,29.61,SSE,166,1.0,11.0,96,0.03,,,2.16,weatherlink.com 1.10,2013-02-26 03:19:00,
2013-02-25 21:34:00,59.9,59.0,29.62,East,84,5.0,11.0,96,0.04,,,2.18,weatherlink.com 1.10,2013-02-26 03:34:00,
2013-02-25 21:49:00,59.9,59.0,29.63,ESE,116,11.0,12.0,96,0.06,,,2.20,weatherlink.com 1.10,2013-02-26 03:49:00,
2013-02-25 22:04:00,59.9,59.0,29.61,SE,129,4.0,12.0,96,0.05,,,2.20,weatherlink.com 1.10,2013-02-26 04:04:00,
2013-02-25 22:19:00,60.0,59.0,29.60,SSE,148,5.0,14.0,96,0.04,,,2.20,weatherlink.com 1.10,2013-02-26 04:19:00,
2013-02-25 22:34:00,60.1,59.0,29.60,SSE,149,3.0,10.0,96,0.02,,,2.20,weatherlink.com 1.10,2013-02-26 04:34:00,
2013-02-25 22:49:00,60.1,59.0,29.57,East,101,5.0,14.0,96,0.01,,,2.21,weatherlink.com 1.10,2013-02-26 04:49:00,
2013-02-25 23:04:00,60.2,59.0,29.57,SSE,152,10.0,14.0,96,0.01,,,2.21,weatherlink.com 1.10,2013-02-26 05:04:00,
2013-02-25 23:19:00,60.4,59.0,29.55,East,86,4.0,15.0,96,0.01,,,2.21,weatherlink.com 1.10,2013-02-26 05:19:00,
2013-02-25 23:35:00,60.4,59.0,29.55,ENE,63,4.0,13.0,96,0.02,,,2.22,weatherlink.com 1.10,2013-02-26 05:35:00,
2013-02-25 23:50:00,60.6,60.0,29.54,SSE,158,6.0,12.0,96,0.03,,,2.24,weatherlink.com 1.10,2013-02-26 05:50:00,